• Join FlightAware (Why Join?)
  • Login
  • US Flag 
05:22AM EDT


 

Airport Tracker/Info


-or-


 

Live Flight TrackerFlight Track Log ✈ GJS3710 ✈ 23-May-2013 ✈ KDEN - KSTL

Flight Track Log - Related Links

Times and Time Zones

All times are in EDT time to prevent confusion due to time zone crossing. See the GJS3710 flight status page for this flight to view local times or setup timezone preferences in your user account.

Time Position Orientation Groundspeed Altitude Reporting Facility
EDT Latitude Longitude Course Direction KTS MPH feet Rate Location/Type
02:40PM 39.8333 -104.4667 111° Southeast 288 331 9,600  Level Denver TRACON
02:41PM 39.6873 -104.0990 108° East  Level FlightAware Approximate
02:41PM 39.8036 -104.3725 112° Southeast 295 339 9,800  Level Denver Center
02:42PM 39.6330 -103.9655 110° East  Level FlightAware Approximate
02:42PM 39.7661 -104.2672 115° Southeast 322 371 10,800  Level Denver Center
02:43PM 39.5913 -103.8239 113° Southeast  Level FlightAware Approximate
02:43PM 39.7222 -104.1414 114° Southeast 352 405 13,000  Level Denver Center
02:44PM 39.5582 -103.6825 108° East  Level FlightAware Approximate
02:44PM 39.6811 -104.0222 114° Southeast 362 417 14,900  Level Denver Center
02:45PM 39.5210 -103.5421 111° Southeast  Level FlightAware Approximate
02:45PM 39.6328 -103.8981 117° Southeast 381 438 16,600  Level Denver Center
02:46PM 39.5828 -103.7608 115° Southeast 390 449 18,700 1,740 Climbing Denver Center
02:47PM 39.5503 -103.6378 109° East 387 445 20,200 1,500 Climbing Denver Center
02:48PM 39.5092 -103.4792 109° East 408 470 21,800 1,560 Climbing Denver Center
02:49PM 39.4719 -103.3392 109° East 424 488 23,400 1,500 Climbing Denver Center
02:50PM 39.4269 -103.1719 109° East 436 502 24,900 1,200 Climbing Denver Center
02:51PM 39.3892 -103.0281 109° East 440 506 26,000 1,080 Climbing Denver Center
02:52PM 39.3431 -102.8564 109° East 447 514 27,200 1,020 Climbing Denver Center
02:53PM 39.3019 -102.7050 109° East 459 528 28,200 960 Climbing Denver Center
02:54PM 39.2533 -102.5253 109° East 472 543 29,200 960 Climbing Denver Center
02:55PM 39.2108 -102.3708 110° East 476 548 30,200 900 Climbing Denver Center
02:56PM 39.1683 -102.2150 109° East 480 552 31,100 840 Climbing Denver Center
02:57PM 39.1175 -102.0342 110° East 483 556 32,000 780 Climbing Denver Center
02:58PM 39.0739 -101.8789 110° East 481 554 32,800 780 Climbing Denver Center
02:59PM 39.0211 -101.6953 110° East 489 563 33,700 780 Climbing Denver Center
03:00PM 38.9764 -101.5411 110° East 483 556 34,500 780 Climbing Denver Center
03:01PM 38.9228 -101.3586 111° Southeast 487 560 35,400 780 Climbing Denver Center
03:02PM 38.9061 -101.1939 97° East 485 558 36,200 780 Climbing Denver Center
03:03PM 38.8944 -101.0019 94° East 483 556 37,100 720 Climbing Denver Center
03:04PM 38.8833 -100.8411 95° East 475 547 37,800 720 Climbing Denver Center
03:05PM 38.8719 -100.6814 95° East 469 540 38,600 540 Climbing Denver Center
03:07PM 38.8597 -100.4997 95° East 459 528 39,000 180 Climbing Denver Center
03:08PM 38.8481 -100.3394 95° East 466 536 39,000  Level Denver Center
03:09PM 38.8342 -100.1508 95° East 474 545 39,100  Climbing Denver Center
03:09PM 38.8233 -100.0119 96° East 479 551 39,000 -60 Descending Kansas City Center
03:10PM 38.8106 -99.8461 96° East 486 559 39,000  Level Kansas City Center
03:11PM 38.7953 -99.6531 96° East 487 560 39,000  Level Kansas City Center
03:12PM 38.7831 -99.5044 96° East 488 562 39,000  Level Kansas City Center
03:14PM 38.7658 -99.2972 96° East 487 560 39,000  Level Kansas City Center
03:15PM 38.7531 -99.1233 95° East 489 563 39,000  Level Kansas City Center
03:16PM 38.7386 -98.9500 96° East 489 563 39,000  Level Kansas City Center
03:17PM 38.7231 -98.7778 97° East 485 558 39,000  Level Kansas City Center
03:18PM 38.7086 -98.6033 96° East 489 563 39,000  Level Kansas City Center
03:19PM 38.6939 -98.4300 96° East 488 562 39,000  Level Kansas City Center
03:20PM 38.6783 -98.2558 96° East 491 565 39,000  Level Kansas City Center
03:21PM 38.6586 -98.0431 97° East 492 566 39,000  Level Kansas City Center
03:22PM 38.6422 -97.8733 97° East 490 564 39,000  Level Kansas City Center
03:23PM 38.6261 -97.6975 97° East 494 568 39,000  Level Kansas City Center
03:24PM 38.6092 -97.5233 97° East 492 566 39,000  Level Kansas City Center
03:25PM 38.5917 -97.3469 97° East 496 571 39,000  Level Kansas City Center
03:26PM 38.5742 -97.1717 97° East 497 572 39,000  Level Kansas City Center
03:27PM 38.5631 -96.9950 95° East 498 573 39,000  Level Kansas City Center
03:28PM 38.5728 -96.7886 86° East 498 573 39,000  Level Kansas City Center
03:29PM 38.5794 -96.6197 87° East 498 573 39,000  Level Kansas City Center
03:30PM 38.5886 -96.4225 87° East 498 573 39,000  Level Kansas City Center
03:31PM 38.5953 -96.2528 87° East 500 575 39,000  Level Kansas City Center
03:32PM 38.6022 -96.0528 87° East 505 581 39,000  Level Kansas City Center
03:33PM 38.6100 -95.8817 87° East 505 581 39,000  Level Kansas City Center
03:34PM 38.6172 -95.6842 87° East 501 577 39,000  Level Kansas City Center
03:35PM 38.6231 -95.5128 87° East 506 582 39,000  Level Kansas City Center
03:36PM 38.6303 -95.3144 87° East 503 579 39,000  Level Kansas City Center
03:37PM 38.6353 -95.1461 88° East 499 574 39,000  Level Kansas City Center
03:38PM 38.6411 -94.9481 88° East 502 578 39,000  Level Kansas City Center
03:39PM 38.6458 -94.7778 88° East 502 578 39,000  Level Kansas City Center
03:40PM 38.6514 -94.5797 88° East 502 578 39,000  Level Kansas City Center
03:41PM 38.6550 -94.4092 88° East 502 578 39,000  Level Kansas City Center
03:42PM 38.6600 -94.2103 88° East 504 580 39,000  Level Kansas City Center
03:44PM 38.6636 -94.0389 88° East 504 580 39,000  Level Kansas City Center
03:45PM 38.6672 -93.8381 89° East 506 582 39,000  Level Kansas City Center
03:46PM 38.6708 -93.6558 88° East 504 580 39,000 -180 Level Kansas City Center
03:47PM 38.6753 -93.4736 88° East 508 585 38,700 -780 Descending Kansas City Center
03:48PM 38.6783 -93.2936 89° East 506 582 37,500 -1,200 Descending Kansas City Center
03:49PM 38.6822 -93.1142 88° East 503 579 36,300 -1,200 Descending Kansas City Center
03:50PM 38.6836 -92.9303 89° East 509 586 35,100 -1,200 Descending Kansas City Center
03:51PM 38.6858 -92.7464 89° East 512 589 33,900 -1,320 Descending Kansas City Center
03:52PM 38.6883 -92.5267 89° East 511 588 32,400 -1,620 Descending Kansas City Center
03:53PM 38.6883 -92.3369 90° East 521 600 30,600 -2,160 Descending Kansas City Center
03:54PM 38.6903 -92.1506 89° East 521 600 28,000 -2,520 Descending Kansas City Center
03:55PM 38.6917 -91.9692 89° East 511 588 25,500 -2,460 Descending Kansas City Center
03:56PM 38.6922 -91.7900 90° East 503 579 23,000 -2,460 Descending Kansas City Center
03:57PM 38.6925 -91.6183 90° East 487 560 20,500 -2,520 Descending Kansas City Center
03:58PM 38.6919 -91.4558 90° East 463 533 17,900 -2,520 Descending Kansas City Center
03:59PM 38.6933 -91.2878 89° East 432 497 15,300 -1,440 Descending Kansas City Center
04:00PM 38.6939 -91.1442 90° East 412 474 15,000 -180 Descending Kansas City Center
04:01PM 38.6939 -90.9989 90° East 409 471 15,000 -240 Level Kansas City Center
04:02PM 38.6994 -90.8525 87° East 412 474 14,600 -780 Descending Kansas City Center
04:03PM 38.7056 -90.7264 86° East 363 418 13,500 -1,200 Descending Kansas City Center
04:04PM 38.7125 -90.5800 86° East 346 398 12,200 -1,200 Descending Kansas City Center
04:05PM 38.6819 -90.4667 109° East 356 410 11,100 -1,080 Descending Kansas City Center
04:06PM 38.6331 -90.3733 124° Southeast 339 390 10,000 -1,740 Descending Kansas City Center
04:07PM 38.5756 -90.2700 125° Southeast 313 360 7,600 -2,040 Descending Kansas City Center
04:08PM 38.5319 -90.1836 123° Southeast 301 346 5,800 -1,260 Descending Kansas City Center
04:09PM 38.5506 -90.1292 66° East 249 287 5,100 -840 Descending Kansas City Center
04:10PM 38.6033 -90.1303 359° North 212 244 4,100 -780 Descending Kansas City Center
04:11PM 38.6419 -90.1639 326° Northwest 180 207 3,500 -480 Descending Kansas City Center
04:12PM 38.6711 -90.2031 314° West 165 190 3,200 -660 Descending Kansas City Center
04:14PM 38.6975 -90.2561 303° West 156 180 2,200 -840 Descending Kansas City Center
04:15PM 38.7153 -90.2925 302° West 138 159 1,500 -660 Descending Kansas City Center
04:16PM 38.7344 -90.3303 303° West 131 151 900 -480 Descending Kansas City Center
04:17PM 38.7483 -90.3575 303° West 101 116 600 -300 Descending Kansas City Center